Time;durP1;ratioP1;P1;durP2;ratioP2;P2;SDS_P1;SDS_P2;PMS_P1;PMS_P2;Temp;Humidity;BMP_temperature;BMP_pressure;BME280_temperature;BME280_humidity;BME280_pressure;Samples;Min_cycle;Max_cycle;Signal;HPM_P1;HPM_P2
2022/08/15 00:02:23;;;;;;;2.90;2.70;;;22.00;57.80;;;;;;5066701;28;21484;-83
2022/08/15 00:04:50;;;;;;;2.97;2.60;;;22.00;56.80;;;;;;5067057;28;20708;-81
2022/08/15 00:07:17;;;;;;;2.10;1.90;;;22.00;57.80;;;;;;5066949;28;20723;-81
2022/08/15 00:09:45;;;;;;;2.80;2.60;;;22.00;57.60;;;;;;5067083;28;20654;-83
2022/08/15 00:12:13;;;;;;;3.30;3.03;;;21.90;58.00;;;;;;5065647;28;20633;-82
2022/08/15 00:14:41;;;;;;;2.60;2.40;;;21.90;58.80;;;;;;5083311;28;20621;-82
2022/08/15 00:17:10;;;;;;;4.63;3.00;;;21.90;58.80;;;;;;5075635;28;20625;-82
2022/08/15 00:19:44;;;;;;;4.60;2.67;;;21.90;58.90;;;;;;5085528;28;20627;-82
2022/08/15 00:22:15;;;;;;;2.80;2.60;;;21.90;58.70;;;;;;5066790;28;20605;-83
2022/08/15 00:24:42;;;;;;;3.33;3.03;;;22.00;58.40;;;;;;5067913;28;21104;-82
2022/08/15 00:27:13;;;;;;;2.97;2.67;;;22.20;57.40;;;;;;5083892;28;21030;-81
2022/08/15 00:29:41;;;;;;;2.93;2.67;;;22.30;57.00;;;;;;5069718;28;20628;-82
2022/08/15 00:32:11;;;;;;;3.27;2.70;;;22.20;56.80;;;;;;5067511;28;20955;-83
2022/08/15 00:34:39;;;;;;;3.13;2.83;;;22.20;56.60;;;;;;5074571;28;20625;-81
2022/08/15 00:37:07;;;;;;;2.70;2.50;;;22.20;56.70;;;;;;5067230;28;20614;-84
2022/08/15 00:39:35;;;;;;;3.00;2.70;;;22.30;56.70;;;;;;5068152;28;20612;-84
2022/08/15 00:42:05;;;;;;;3.10;2.90;;;22.30;56.70;;;;;;5080417;28;21170;-83
2022/08/15 00:44:40;;;;;;;2.70;2.13;;;22.20;56.90;;;;;;5084821;28;20621;-82
2022/08/15 00:47:10;;;;;;;3.87;3.20;;;21.90;57.70;;;;;;5087140;28;20720;-79
2022/08/15 00:49:39;;;;;;;2.63;2.43;;;21.90;58.30;;;;;;5068211;28;20669;-81
2022/08/15 00:52:13;;;;;;;2.60;2.40;;;21.90;57.90;;;;;;5080214;28;20694;-81
2022/08/15 00:54:43;;;;;;;2.13;2.03;;;21.90;57.90;;;;;;5085029;28;20632;-82
2022/08/15 00:57:18;;;;;;;2.60;2.40;;;21.80;58.30;;;;;;5066876;28;20987;-81
2022/08/15 00:59:53;;;;;;;2.90;2.70;;;21.70;58.90;;;;;;5087002;28;20620;-82
2022/08/15 01:02:25;;;;;;;2.60;2.40;;;21.50;59.40;;;;;;5078043;28;20624;-82
2022/08/15 01:04:52;;;;;;;3.40;2.70;;;21.50;59.10;;;;;;5071027;28;20846;-83
2022/08/15 01:07:20;;;;;;;2.70;2.50;;;21.60;59.00;;;;;;5069714;28;20665;-81
2022/08/15 01:09:48;;;;;;;3.43;2.53;;;21.50;59.50;;;;;;5073829;28;20624;-81
2022/08/15 01:12:19;;;;;;;2.73;2.53;;;21.60;59.30;;;;;;5086442;28;20620;-81
2022/08/15 01:14:50;;;;;;;3.30;2.77;;;21.70;59.00;;;;;;5072443;28;20620;-82
2022/08/15 01:17:18;;;;;;;3.53;2.80;;;21.70;59.30;;;;;;5072961;28;20625;-81
2022/08/15 01:19:52;;;;;;;2.27;1.90;;;21.80;58.80;;;;;;5075761;28;20984;-82
2022/08/15 01:22:37;;;;;;;3.70;3.20;;;21.80;58.80;;;;;;5070162;28;20968;-82
2022/08/15 01:25:09;;;;;;;3.10;2.77;;;21.90;58.80;;;;;;5084097;28;20970;-81
2022/08/15 01:27:42;;;;;;;5.10;3.00;;;21.90;59.40;;;;;;5076005;28;21155;-81
2022/08/15 01:30:16;;;;;;;3.70;2.60;;;21.60;59.70;;;;;;5075438;28;20635;-81
2022/08/15 01:32:46;;;;;;;3.30;3.00;;;21.60;60.20;;;;;;5090097;28;20650;-82
2022/08/15 01:35:15;;;;;;;3.10;2.90;;;21.50;60.40;;;;;;5078601;28;21191;-82
2022/08/15 01:37:42;;;;;;;2.80;2.60;;;21.60;60.60;;;;;;5069399;28;20605;-82
2022/08/15 01:40:25;;;;;;;2.87;2.63;;;21.60;61.20;;;;;;5084536;28;20628;-82
2022/08/15 01:42:54;;;;;;;2.60;2.30;;;21.60;60.90;;;;;;5077127;28;20623;-82
2022/08/15 01:45:24;;;;;;;3.47;3.17;;;21.60;61.30;;;;;;5082569;28;20610;-81
2022/08/15 01:47:56;;;;;;;3.90;2.30;;;21.60;61.60;;;;;;5076048;28;20624;-82
2022/08/15 01:50:28;;;;;;;2.63;2.40;;;21.70;62.20;;;;;;5080444;28;20619;-82
2022/08/15 01:53:00;;;;;;;3.03;2.83;;;21.70;62.00;;;;;;5075710;28;20985;-82
2022/08/15 01:55:34;;;;;;;2.33;2.13;;;21.70;62.60;;;;;;5070773;28;20959;-82
2022/08/15 01:58:03;;;;;;;2.93;2.73;;;21.70;62.60;;;;;;5069683;28;20658;-80
2022/08/15 02:00:30;;;;;;;2.57;2.37;;;21.50;63.00;;;;;;5070053;28;20628;-81
2022/08/15 02:02:57;;;;;;;1.87;1.77;;;21.50;63.50;;;;;;5076344;28;20624;-81
2022/08/15 02:05:25;;;;;;;2.20;2.00;;;21.50;64.50;;;;;;5087074;28;20706;-81
2022/08/15 02:07:52;;;;;;;1.77;1.67;;;21.50;64.20;;;;;;5086020;28;20620;-83
2022/08/15 02:10:19;;;;;;;2.23;2.03;;;21.40;64.40;;;;;;5068564;28;21218;-82
2022/08/15 02:12:48;;;;;;;2.70;2.33;;;21.50;64.40;;;;;;5077034;28;20621;-83
2022/08/15 02:15:17;;;;;;;2.80;2.00;;;21.40;64.40;;;;;;5078166;28;21163;-82
2022/08/15 02:17:46;;;;;;;3.73;1.63;;;21.30;65.00;;;;;;5088829;28;20617;-82
2022/08/15 02:20:15;;;;;;;2.80;2.57;;;21.30;65.50;;;;;;5085856;28;20632;-79
2022/08/15 02:22:42;;;;;;;3.53;2.27;;;21.30;65.80;;;;;;5074197;28;20624;-82
2022/08/15 02:25:10;;;;;;;2.00;1.90;;;21.40;65.60;;;;;;5086808;28;20616;-81
2022/08/15 02:27:39;;;;;;;2.10;1.90;;;21.40;65.80;;;;;;5071712;28;20696;-82
2022/08/15 02:30:12;;;;;;;3.50;2.60;;;21.40;65.90;;;;;;5088527;28;20616;-82
2022/08/15 02:32:41;;;;;;;2.60;2.40;;;21.40;65.90;;;;;;5085236;28;20622;-82
2022/08/15 02:35:12;;;;;;;2.37;2.20;;;21.40;66.70;;;;;;5077352;28;21187;-82
2022/08/15 02:37:40;;;;;;;3.13;1.80;;;21.30;67.00;;;;;;5073852;28;20622;-83
2022/08/15 02:40:11;;;;;;;1.57;1.43;;;21.30;66.90;;;;;;5073663;28;20628;-80
2022/08/15 02:42:40;;;;;;;2.17;2.03;;;21.30;67.00;;;;;;5073496;28;20616;-82
2022/08/15 02:45:10;;;;;;;4.03;1.80;;;21.40;66.70;;;;;;5088496;28;20638;-81
2022/08/15 02:47:37;;;;;;;2.53;2.30;;;21.40;67.10;;;;;;5070104;28;20653;-82
2022/08/15 02:50:06;;;;;;;2.23;1.70;;;21.40;66.90;;;;;;5078345;28;20635;-82
2022/08/15 02:52:33;;;;;;;3.00;2.70;;;21.30;67.20;;;;;;5082832;28;20629;-82
2022/08/15 02:55:01;;;;;;;3.00;2.47;;;21.40;67.30;;;;;;5067839;28;20622;-82
2022/08/15 02:57:29;;;;;;;3.00;2.30;;;21.30;67.60;;;;;;5082790;28;20636;-87
2022/08/15 02:59:56;;;;;;;1.70;1.50;;;21.40;67.70;;;;;;5080666;28;20622;-83
2022/08/15 03:02:25;;;;;;;2.03;1.83;;;21.40;67.80;;;;;;5067621;28;20653;-82
2022/08/15 03:04:52;;;;;;;1.73;1.63;;;21.30;68.60;;;;;;5077251;28;20988;-82
2022/08/15 03:07:18;;;;;;;2.30;2.10;;;21.20;68.40;;;;;;5086121;28;20682;-82
2022/08/15 03:09:45;;;;;;;2.13;2.00;;;21.20;68.70;;;;;;5071097;28;20679;-82
2022/08/15 03:12:14;;;;;;;2.33;1.83;;;21.20;69.20;;;;;;5067531;28;20653;-82
2022/08/15 03:14:41;;;;;;;2.40;2.17;;;21.10;68.80;;;;;;5068644;28;20724;-82
2022/08/15 03:17:09;;;;;;;3.33;2.57;;;21.20;68.90;;;;;;5072367;28;20666;-82
2022/08/15 03:19:38;;;;;;;1.50;1.40;;;21.20;68.90;;;;;;5083519;28;21034;-83
2022/08/15 03:22:05;;;;;;;1.93;1.73;;;21.20;68.90;;;;;;5073740;28;20637;-81
2022/08/15 03:24:33;;;;;;;1.80;1.70;;;21.10;69.70;;;;;;5068861;28;20625;-81
2022/08/15 03:26:59;;;;;;;1.97;1.77;;;21.00;69.70;;;;;;5084816;28;20960;-83
2022/08/15 03:29:27;;;;;;;2.53;1.80;;;21.10;70.00;;;;;;5083896;28;20652;-84
2022/08/15 03:31:54;;;;;;;2.10;1.67;;;20.90;70.70;;;;;;5067378;28;20675;-81
2022/08/15 03:34:26;;;;;;;1.90;1.80;;;21.00;70.80;;;;;;5066366;28;20733;-83
2022/08/15 03:36:54;;;;;;;2.80;2.23;;;21.00;71.90;;;;;;5067566;28;20719;-83
2022/08/15 03:39:21;;;;;;;1.60;1.50;;;21.00;71.60;;;;;;5067843;28;20645;-82
2022/08/15 03:41:49;;;;;;;1.70;1.60;;;20.90;72.20;;;;;;5080592;28;20685;-83
2022/08/15 03:44:16;;;;;;;3.07;1.83;;;20.90;72.80;;;;;;5087370;28;20715;-82
2022/08/15 03:46:43;;;;;;;3.93;1.40;;;20.90;73.00;;;;;;5079138;28;20631;-83
2022/08/15 03:49:13;;;;;;;1.73;1.37;;;20.80;74.20;;;;;;5070575;28;20617;-84
2022/08/15 03:51:40;;;;;;;3.60;1.93;;;20.90;75.60;;;;;;5080008;28;21198;-83
2022/08/15 03:54:08;;;;;;;2.40;1.77;;;21.00;74.90;;;;;;5086114;28;20624;-82
2022/08/15 03:56:36;;;;;;;1.90;1.30;;;20.80;75.50;;;;;;5068373;28;20792;-83
2022/08/15 03:59:03;;;;;;;2.90;1.33;;;20.60;76.50;;;;;;5067579;28;20617;-82
2022/08/15 04:01:32;;;;;;;3.00;1.70;;;20.40;78.10;;;;;;5072572;28;20630;-82
2022/08/15 04:03:59;;;;;;;2.77;1.47;;;20.40;78.50;;;;;;5068088;28;20649;-82
2022/08/15 04:06:29;;;;;;;1.60;1.50;;;20.40;78.20;;;;;;5067189;28;20653;-83
2022/08/15 04:08:56;;;;;;;1.83;1.70;;;20.50;78.00;;;;;;5067458;28;20621;-82
2022/08/15 04:11:28;;;;;;;2.00;1.83;;;20.50;77.70;;;;;;5066706;28;20706;-83
2022/08/15 04:13:55;;;;;;;2.20;2.00;;;20.40;77.90;;;;;;5066388;28;20617;-83
2022/08/15 04:16:23;;;;;;;1.70;1.60;;;20.40;77.90;;;;;;5066938;28;20728;-82
2022/08/15 04:18:50;;;;;;;2.07;1.87;;;20.40;77.80;;;;;;5066511;28;21267;-83
2022/08/15 04:21:17;;;;;;;2.00;1.90;;;20.70;77.50;;;;;;5066020;28;21362;-82
2022/08/15 04:23:47;;;;;;;1.60;1.47;;;20.50;77.10;;;;;;5066969;28;21190;-82
2022/08/15 04:26:15;;;;;;;2.60;1.40;;;20.50;77.10;;;;;;5067608;28;20683;-83
2022/08/15 04:28:44;;;;;;;1.93;1.70;;;20.50;76.90;;;;;;5066659;28;20720;-82
2022/08/15 04:31:13;;;;;;;1.70;1.53;;;20.60;76.50;;;;;;5066552;28;20621;-82
2022/08/15 04:33:41;;;;;;;1.43;1.33;;;20.70;76.00;;;;;;5066448;28;20728;-83
2022/08/15 04:36:10;;;;;;;1.90;1.70;;;20.50;76.80;;;;;;5071853;28;20976;-84
2022/08/15 04:38:37;;;;;;;1.70;1.60;;;20.50;77.30;;;;;;5075639;28;20715;-81
2022/08/15 04:41:05;;;;;;;1.33;1.23;;;20.40;78.90;;;;;;5083233;28;21093;-82
2022/08/15 04:43:33;;;;;;;2.23;1.70;;;20.40;78.90;;;;;;5070130;28;21191;-84
2022/08/15 04:46:02;;;;;;;2.40;1.60;;;20.30;79.30;;;;;;5079906;28;20638;-81
2022/08/15 04:48:30;;;;;;;5.40;1.73;;;20.30;79.50;;;;;;5070631;28;20655;-83
2022/08/15 04:50:58;;;;;;;3.40;1.60;;;20.30;80.10;;;;;;5070928;28;20641;-83
2022/08/15 04:53:28;;;;;;;3.00;2.00;;;20.40;79.80;;;;;;5077258;28;20717;-82
2022/08/15 04:55:57;;;;;;;1.80;1.70;;;20.40;79.50;;;;;;5087999;28;20728;-82
2022/08/15 04:58:25;;;;;;;2.33;1.87;;;20.30;79.90;;;;;;5086064;28;21097;-83
2022/08/15 05:00:56;;;;;;;3.20;2.00;;;20.40;80.20;;;;;;5089532;28;20625;-82
2022/08/15 05:03:27;;;;;;;1.30;1.20;;;20.20;80.60;;;;;;5078731;28;20983;-83
2022/08/15 05:05:58;;;;;;;1.53;1.43;;;20.10;80.30;;;;;;5071659;28;21179;-83
2022/08/15 05:08:28;;;;;;;2.03;1.77;;;20.10;80.90;;;;;;5080208;28;20627;-83
2022/08/15 05:10:57;;;;;;;1.53;1.37;;;20.20;80.10;;;;;;5075593;28;20625;-82
2022/08/15 05:13:27;;;;;;;1.70;1.53;;;20.20;80.30;;;;;;5070631;28;20657;-82
2022/08/15 05:15:55;;;;;;;1.87;1.57;;;20.20;79.90;;;;;;5072505;28;20617;-83
2022/08/15 05:18:23;;;;;;;2.07;1.87;;;20.10;80.30;;;;;;5084215;28;20993;-82
2022/08/15 05:20:52;;;;;;;1.90;1.70;;;20.20;80.40;;;;;;5090012;28;20632;-82
2022/08/15 05:23:21;;;;;;;1.27;1.17;;;20.20;79.90;;;;;;5082389;28;20633;-83
2022/08/15 05:25:55;;;;;;;2.60;1.63;;;20.30;79.60;;;;;;5079918;28;20653;-82
2022/08/15 05:28:23;;;;;;;1.70;1.40;;;20.20;79.40;;;;;;5070390;28;21280;-82
2022/08/15 05:30:51;;;;;;;1.70;1.57;;;20.10;80.00;;;;;;5085417;28;20639;-82
2022/08/15 05:33:20;;;;;;;1.30;1.17;;;20.00;80.40;;;;;;5083082;28;20637;-82
2022/08/15 05:35:52;;;;;;;1.77;1.50;;;20.20;80.60;;;;;;5076840;28;20716;-84
2022/08/15 05:38:23;;;;;;;1.57;1.40;;;20.30;80.70;;;;;;5077068;28;20661;-83
2022/08/15 05:41:11;;;;;;;1.70;1.27;;;20.30;82.30;;;;;;5080254;28;20718;-82
2022/08/15 05:43:46;;;;;;;1.47;1.00;;;20.20;82.60;;;;;;5070116;28;20606;-83
2022/08/15 05:46:22;;;;;;;1.17;1.00;;;20.20;83.70;;;;;;5086899;28;20998;-82
2022/08/15 05:48:59;;;;;;;1.87;1.40;;;20.20;83.30;;;;;;5091576;28;20985;-83
2022/08/15 05:51:33;;;;;;;1.50;1.27;;;19.90;83.40;;;;;;5084538;28;21197;-82
2022/08/15 05:54:12;;;;;;;1.63;1.53;;;19.80;83.60;;;;;;5082249;28;20625;-83
2022/08/15 05:56:50;;;;;;;1.47;1.37;;;19.90;84.00;;;;;;5070663;28;20633;-83
2022/08/15 05:59:19;;;;;;;0.97;0.87;;;19.80;83.80;;;;;;5071451;28;20679;-81
2022/08/15 06:01:52;;;;;;;1.87;1.33;;;19.80;84.60;;;;;;5082982;28;21071;-84
2022/08/15 06:04:37;;;;;;;0.93;0.93;;;19.80;83.80;;;;;;5070739;28;20620;-83
2022/08/15 06:07:10;;;;;;;1.20;1.10;;;19.80;85.10;;;;;;5071282;28;20644;-82
2022/08/15 06:09:43;;;;;;;1.30;1.20;;;19.80;83.70;;;;;;5074262;28;20655;-82
2022/08/15 06:12:15;;;;;;;2.10;1.47;;;19.90;83.60;;;;;;5090091;28;20625;-83
2022/08/15 06:14:45;;;;;;;1.33;1.10;;;20.10;82.80;;;;;;5088143;28;21561;-83
2022/08/15 06:17:18;;;;;;;1.30;1.20;;;20.00;83.40;;;;;;5079059;28;20761;-81
2022/08/15 06:19:49;;;;;;;0.83;0.77;;;19.90;82.90;;;;;;5086086;28;21167;-82
2022/08/15 06:22:34;;;;;;;1.33;1.23;;;19.80;83.30;;;;;;5069913;28;20652;-84
2022/08/15 06:25:13;;;;;;;1.40;1.30;;;19.80;83.80;;;;;;5072973;28;20631;-83
2022/08/15 06:27:53;;;;;;;1.17;1.00;;;19.80;83.80;;;;;;5087142;28;20632;-82
2022/08/15 06:30:26;;;;;;;1.10;1.00;;;19.90;83.70;;;;;;5085587;28;21023;-83
2022/08/15 06:32:58;;;;;;;1.23;1.13;;;20.00;83.10;;;;;;5089821;28;20689;-82
2022/08/15 06:35:34;;;;;;;0.90;0.80;;;19.80;83.00;;;;;;5076858;28;20630;-82
2022/08/15 06:38:09;;;;;;;1.20;1.10;;;19.80;83.30;;;;;;5083483;28;20709;-84
2022/08/15 06:40:47;;;;;;;1.60;1.50;;;19.80;82.90;;;;;;5079845;28;20633;-83
2022/08/15 06:43:15;;;;;;;1.40;1.30;;;19.70;83.60;;;;;;5087815;28;20660;-83
2022/08/15 06:45:46;;;;;;;1.37;1.20;;;19.80;82.80;;;;;;5072362;28;21163;-84
2022/08/15 06:48:16;;;;;;;1.37;1.10;;;19.80;82.00;;;;;;5089052;28;20605;-83
2022/08/15 06:50:47;;;;;;;1.10;1.00;;;19.80;81.60;;;;;;5066177;28;20720;-80
2022/08/15 06:53:19;;;;;;;1.03;0.87;;;19.90;80.80;;;;;;5076736;28;20697;-83
2022/08/15 06:55:53;;;;;;;1.33;1.23;;;19.90;81.10;;;;;;5077506;28;21078;-83
2022/08/15 06:58:33;;;;;;;1.00;0.90;;;19.90;80.90;;;;;;5068269;28;21081;-84
2022/08/15 07:01:10;;;;;;;1.60;1.50;;;19.90;81.20;;;;;;5071129;28;20636;-80
2022/08/15 07:03:47;;;;;;;1.40;1.00;;;20.10;80.80;;;;;;5079781;28;20615;-84
2022/08/15 07:06:19;;;;;;;1.00;0.90;;;20.00;79.90;;;;;;5076665;28;20613;-82
2022/08/15 07:08:55;;;;;;;1.17;1.00;;;20.10;80.10;;;;;;5086519;28;20616;-83
2022/08/15 07:11:28;;;;;;;1.83;1.20;;;20.20;80.20;;;;;;5086226;28;20717;-83
2022/08/15 07:14:19;;;;;;;1.93;1.50;;;20.50;80.20;;;;;;5079822;28;20625;-82
2022/08/15 07:16:51;;;;;;;1.90;1.40;;;20.80;80.00;;;;;;5068793;28;20629;-84
2022/08/15 07:19:19;;;;;;;1.20;1.10;;;21.10;77.40;;;;;;5067073;28;20721;-84
2022/08/15 07:21:46;;;;;;;1.60;1.33;;;21.20;75.90;;;;;;5068514;28;20618;-81
2022/08/15 07:24:28;;;;;;;1.20;1.10;;;21.40;75.10;;;;;;5068353;28;20720;-83
2022/08/15 07:26:59;;;;;;;1.37;1.27;;;21.60;74.90;;;;;;5069379;28;21120;-82
2022/08/15 07:29:31;;;;;;;2.00;1.20;;;21.50;73.90;;;;;;5072778;28;20645;-83
2022/08/15 07:32:07;;;;;;;1.00;0.93;;;21.60;72.90;;;;;;5069161;28;20634;-84
2022/08/15 07:34:35;;;;;;;2.20;1.40;;;21.50;72.20;;;;;;5080793;28;21183;-83
2022/08/15 07:37:06;;;;;;;4.80;1.47;;;21.60;72.60;;;;;;5068190;28;20624;-83
2022/08/15 07:39:37;;;;;;;0.90;0.90;;;21.80;73.00;;;;;;5081900;28;20624;-82
2022/08/15 07:42:15;;;;;;;1.40;1.07;;;21.80;71.60;;;;;;5082484;28;20678;-84
2022/08/15 07:44:51;;;;;;;1.33;0.90;;;22.10;71.10;;;;;;5069610;28;20649;-83
2022/08/15 07:47:24;;;;;;;1.13;0.83;;;22.10;70.50;;;;;;5079732;28;21265;-82
2022/08/15 07:49:59;;;;;;;1.07;1.00;;;22.30;70.30;;;;;;5088866;28;20624;-83
2022/08/15 07:52:27;;;;;;;1.13;0.97;;;22.40;69.60;;;;;;5081070;28;20627;-84
2022/08/15 07:54:56;;;;;;;1.30;1.20;;;22.40;69.10;;;;;;5077657;28;20634;-82
2022/08/15 07:57:28;;;;;;;1.10;0.80;;;22.40;69.50;;;;;;5072918;28;20648;-84
2022/08/15 08:00:17;;;;;;;1.10;1.00;;;22.50;68.90;;;;;;5074008;28;21134;-84
2022/08/15 08:02:50;;;;;;;1.30;1.20;;;22.30;68.30;;;;;;5076723;28;20635;-84
2022/08/15 08:05:18;;;;;;;0.97;0.97;;;22.30;69.50;;;;;;5072076;28;20652;-83
2022/08/15 08:07:47;;;;;;;1.07;1.00;;;22.10;67.90;;;;;;5069953;28;20969;-83
2022/08/15 08:10:29;;;;;;;0.90;0.80;;;22.30;69.10;;;;;;5072722;28;20647;-84
2022/08/15 08:13:24;;;;;;;1.00;1.00;;;22.50;67.70;;;;;;5078137;28;20736;-84
2022/08/15 08:15:59;;;;;;;1.00;1.00;;;22.50;67.90;;;;;;5078937;28;20995;-81
2022/08/15 08:18:36;;;;;;;1.07;0.97;;;22.50;68.40;;;;;;5073905;28;20719;-83
2022/08/15 08:21:08;;;;;;;1.10;1.10;;;22.70;67.60;;;;;;5084943;28;20644;-81
2022/08/15 08:23:42;;;;;;;0.80;0.80;;;22.80;66.20;;;;;;5074335;28;21195;-85
2022/08/15 08:26:19;;;;;;;1.13;1.03;;;23.00;66.40;;;;;;5083226;28;20637;-84
2022/08/15 08:28:53;;;;;;;1.07;1.07;;;23.10;65.50;;;;;;5093330;28;20624;-85
2022/08/15 08:31:26;;;;;;;1.33;1.23;;;22.80;65.50;;;;;;5078944;28;20617;-84
2022/08/15 08:34:05;;;;;;;1.10;1.00;;;22.80;66.00;;;;;;5082566;28;20621;-84
2022/08/15 08:36:40;;;;;;;1.47;1.37;;;23.20;64.30;;;;;;5072642;28;20763;-83
2022/08/15 08:39:23;;;;;;;1.20;1.10;;;23.20;65.40;;;;;;5091834;28;20652;-84
2022/08/15 08:41:58;;;;;;;1.07;1.07;;;23.30;64.10;;;;;;5081084;28;21331;-83
2022/08/15 08:44:53;;;;;;;1.17;1.03;;;23.10;64.00;;;;;;5079872;28;21489;-83
2022/08/15 08:47:38;;;;;;;1.20;1.10;;;23.10;63.80;;;;;;5088244;28;21078;-83
2022/08/15 08:50:40;;;;;;;1.23;1.10;;;23.20;63.90;;;;;;5070205;28;20629;-81
2022/08/15 08:53:17;;;;;;;0.80;0.80;;;23.40;62.60;;;;;;5068893;28;20644;-84
2022/08/15 08:55:49;;;;;;;0.80;0.80;;;23.60;61.80;;;;;;5070828;28;20708;-84
2022/08/15 08:58:20;;;;;;;1.07;1.07;;;23.60;62.20;;;;;;5070073;28;20700;-81
2022/08/15 09:00:51;;;;;;;1.67;1.33;;;23.70;61.00;;;;;;5071709;28;20678;-83
2022/08/15 09:03:21;;;;;;;1.60;1.50;;;23.70;61.30;;;;;;5069726;28;20633;-84
2022/08/15 09:05:51;;;;;;;1.63;1.53;;;23.70;59.60;;;;;;5070507;28;20624;-85
2022/08/15 09:08:24;;;;;;;0.70;0.70;;;23.70;59.40;;;;;;5071589;28;20621;-84
2022/08/15 09:10:55;;;;;;;1.30;1.20;;;24.00;59.90;;;;;;5071390;28;20667;-83
2022/08/15 09:13:35;;;;;;;0.97;0.97;;;23.90;59.00;;;;;;5090823;28;20605;-85
2022/08/15 09:16:09;;;;;;;1.03;0.97;;;23.70;59.30;;;;;;5081529;28;20625;-83
2022/08/15 09:18:42;;;;;;;1.00;0.90;;;23.90;58.80;;;;;;5071543;28;21099;-83
2022/08/15 09:21:09;;;;;;;2.00;1.37;;;24.10;58.90;;;;;;5070875;28;20712;-83
2022/08/15 09:23:40;;;;;;;0.77;0.73;;;24.10;58.20;;;;;;5070776;28;20678;-84
2022/08/15 09:26:13;;;;;;;1.10;1.00;;;24.40;57.90;;;;;;5071283;28;20638;-85
2022/08/15 09:28:42;;;;;;;1.20;1.10;;;24.50;57.90;;;;;;5070723;28;20630;-83
2022/08/15 09:31:15;;;;;;;1.33;1.17;;;24.60;57.60;;;;;;5071081;28;21122;-85
2022/08/15 09:34:22;;;;;;;1.10;1.00;;;25.00;57.40;;;;;;5069537;28;20621;-82
2022/08/15 09:37:15;;;;;;;1.70;1.30;;;25.20;56.50;;;;;;5070955;28;21268;-83
2022/08/15 09:40:03;;;;;;;1.20;1.10;;;24.80;56.00;;;;;;5076804;28;20656;-83
2022/08/15 09:42:55;;;;;;;0.90;0.83;;;24.70;56.00;;;;;;5075901;28;20624;-84
2022/08/15 09:45:37;;;;;;;2.30;1.30;;;25.10;56.80;;;;;;5071926;28;20661;-84
2022/08/15 09:48:31;;;;;;;1.23;1.13;;;25.50;55.90;;;;;;5074442;28;21007;-83
2022/08/15 09:51:29;;;;;;;1.17;1.10;;;25.60;53.70;;;;;;5071236;28;21179;-84
2022/08/15 09:54:13;;;;;;;1.20;1.10;;;25.70;54.40;;;;;;5065823;28;21133;-83
2022/08/15 09:56:40;;;;;;;1.37;1.27;;;26.00;54.70;;;;;;5073760;28;20698;-83
2022/08/15 09:59:17;;;;;;;1.10;1.00;;;26.30;54.10;;;;;;5073054;28;20669;-83
2022/08/15 10:01:50;;;;;;;1.70;1.60;;;26.20;53.10;;;;;;5084440;28;21404;-84
2022/08/15 10:04:22;;;;;;;1.50;1.33;;;25.80;53.00;;;;;;5083421;28;20623;-85
2022/08/15 10:07:42;;;;;;;1.23;1.13;;;25.80;54.60;;;;;;5089393;28;20625;-85
2022/08/15 10:10:16;;;;;;;1.50;1.40;;;26.10;54.00;;;;;;5069498;28;20621;-85
2022/08/15 10:13:11;;;;;;;1.67;1.10;;;26.20;53.70;;;;;;5077193;28;20621;-84
2022/08/15 10:15:43;;;;;;;1.20;1.00;;;26.20;52.90;;;;;;5088969;28;20621;-83
2022/08/15 10:18:10;;;;;;;1.50;1.40;;;26.30;52.50;;;;;;5089089;28;20648;-84
2022/08/15 10:21:17;;;;;;;4.20;1.60;;;26.70;51.70;;;;;;5087795;28;20612;-86
2022/08/15 10:23:46;;;;;;;1.60;1.50;;;26.80;51.10;;;;;;5088390;28;20632;-84
2022/08/15 10:26:26;;;;;;;0.83;0.83;;;26.50;51.50;;;;;;5088670;28;20628;-85
2022/08/15 10:29:25;;;;;;;1.13;1.13;;;26.60;52.80;;;;;;5088590;28;20731;-84
2022/08/15 10:31:55;;;;;;;1.33;1.03;;;26.80;53.10;;;;;;5081066;28;21101;-84
2022/08/15 10:34:37;;;;;;;1.10;1.00;;;27.10;50.50;;;;;;5076091;28;20620;-84
2022/08/15 10:37:18;;;;;;;1.60;1.50;;;27.20;48.90;;;;;;5090064;28;20685;-85
2022/08/15 10:40:17;;;;;;;1.37;1.27;;;27.20;49.80;;;;;;5069473;28;20765;-85
2022/08/15 10:42:55;;;;;;;1.27;1.20;;;27.10;50.50;;;;;;5088359;28;20617;-86
2022/08/15 10:45:28;;;;;;;1.03;0.90;;;26.90;51.00;;;;;;5089032;28;20659;-85
2022/08/15 10:48:07;;;;;;;1.50;1.40;;;27.00;51.90;;;;;;5071887;28;20624;-83
2022/08/15 10:50:45;;;;;;;1.67;1.10;;;27.50;51.10;;;;;;5077922;28;20673;-83
2022/08/15 10:53:27;;;;;;;1.37;1.27;;;27.50;50.40;;;;;;5083641;28;20643;-84
2022/08/15 10:56:08;;;;;;;1.60;1.40;;;27.60;50.10;;;;;;5071545;28;21201;-84
2022/08/15 10:58:35;;;;;;;1.70;1.37;;;27.80;50.00;;;;;;5070674;28;20697;-85
2022/08/15 11:01:07;;;;;;;1.27;1.20;;;27.50;50.70;;;;;;5084908;28;20675;-83
2022/08/15 11:03:42;;;;;;;1.87;1.77;;;27.10;49.10;;;;;;5079996;28;21234;-83
2022/08/15 11:06:13;;;;;;;1.23;1.10;;;27.50;49.60;;;;;;5069979;28;20629;-85
2022/08/15 11:08:48;;;;;;;1.63;1.40;;;27.90;49.60;;;;;;5068994;28;20698;-85
2022/08/15 11:11:17;;;;;;;0.93;0.93;;;28.10;47.80;;;;;;5084662;28;20621;-84
2022/08/15 11:13:50;;;;;;;1.97;1.60;;;28.10;48.70;;;;;;5087629;28;20624;-84
2022/08/15 11:16:20;;;;;;;2.27;1.50;;;28.10;48.90;;;;;;5081912;28;20679;-85
2022/08/15 11:18:52;;;;;;;1.60;1.50;;;28.20;47.50;;;;;;5080795;28;21308;-85
2022/08/15 11:21:28;;;;;;;1.53;1.43;;;28.20;47.20;;;;;;5082129;28;21132;-84
2022/08/15 11:24:01;;;;;;;2.63;1.33;;;28.00;47.40;;;;;;5082842;28;20612;-84
2022/08/15 11:26:30;;;;;;;1.23;1.13;;;27.70;47.20;;;;;;5081259;28;21209;-85
2022/08/15 11:29:08;;;;;;;1.30;1.20;;;27.90;47.80;;;;;;5088545;28;20714;-84
2022/08/15 11:31:44;;;;;;;1.53;1.10;;;27.90;47.20;;;;;;5080699;28;20717;-83
2022/08/15 11:34:23;;;;;;;1.43;1.33;;;28.10;48.40;;;;;;5074191;28;20621;-85
2022/08/15 11:36:52;;;;;;;1.20;1.10;;;27.90;48.90;;;;;;5088120;28;20640;-81
2022/08/15 11:39:21;;;;;;;1.80;1.53;;;27.80;48.80;;;;;;5088118;28;20703;-83
2022/08/15 11:41:52;;;;;;;1.30;1.20;;;27.30;48.80;;;;;;5072564;28;20657;-85
2022/08/15 11:44:22;;;;;;;1.90;1.33;;;27.00;48.40;;;;;;5068563;28;21239;-83
2022/08/15 11:46:49;;;;;;;1.83;1.53;;;27.10;48.90;;;;;;5069497;28;20650;-83
2022/08/15 11:49:28;;;;;;;1.90;1.40;;;27.10;50.30;;;;;;5073537;28;20664;-85
2022/08/15 11:52:02;;;;;;;1.33;1.23;;;27.10;49.30;;;;;;5071769;28;20706;-84
2022/08/15 11:54:30;;;;;;;1.33;1.23;;;27.40;48.50;;;;;;5067932;28;21092;-86
2022/08/15 11:57:00;;;;;;;1.43;1.33;;;27.80;47.50;;;;;;5084371;28;20633;-84
2022/08/15 11:59:30;;;;;;;1.33;1.23;;;27.60;48.50;;;;;;5079040;28;21264;-84
2022/08/15 12:02:12;;;;;;;1.50;1.40;;;28.30;49.60;;;;;;5079574;28;21179;-86
2022/08/15 12:04:41;;;;;;;1.23;1.13;;;30.00;47.90;;;;;;5071978;28;20667;-84
2022/08/15 12:07:14;;;;;;;2.00;1.90;;;31.30;45.40;;;;;;5089271;28;21218;-84
2022/08/15 12:09:53;;;;;;;0.93;0.90;;;31.20;44.90;;;;;;5069045;28;21278;-85
2022/08/15 12:12:40;;;;;;;1.37;1.27;;;30.10;45.40;;;;;;5068866;28;21043;-83
2022/08/15 12:15:13;;;;;;;1.40;1.30;;;29.90;47.00;;;;;;5088370;28;20631;-85
2022/08/15 12:17:53;;;;;;;1.73;1.63;;;31.00;46.20;;;;;;5068538;28;20653;-83
2022/08/15 12:20:41;;;;;;;1.43;1.33;;;31.80;43.20;;;;;;5076192;28;20670;-84
2022/08/15 12:23:35;;;;;;;2.70;1.47;;;32.00;43.90;;;;;;5079714;28;20633;-85
2022/08/15 12:26:05;;;;;;;1.60;1.50;;;33.50;43.40;;;;;;5070102;28;20668;-83
2022/08/15 12:28:34;;;;;;;1.30;1.20;;;35.00;41.10;;;;;;5068403;28;21366;-84
2022/08/15 12:31:04;;;;;;;1.50;1.40;;;34.90;39.70;;;;;;5088646;28;20666;-86
2022/08/15 12:33:31;;;;;;;1.20;1.10;;;35.30;39.10;;;;;;5070113;28;20694;-84
2022/08/15 12:35:58;;;;;;;2.03;1.83;;;35.80;38.90;;;;;;5068293;28;21088;-87
2022/08/15 12:38:25;;;;;;;1.60;1.50;;;35.70;37.60;;;;;;5077831;28;20715;-85
2022/08/15 12:40:52;;;;;;;4.10;1.90;;;36.80;36.80;;;;;;5083355;28;21113;-86
2022/08/15 12:43:21;;;;;;;1.73;1.63;;;37.30;35.10;;;;;;5075221;28;20634;-85
2022/08/15 12:45:47;;;;;;;1.50;1.40;;;38.00;34.80;;;;;;5070567;28;20656;-85
2022/08/15 12:48:22;;;;;;;1.58;1.48;;;38.60;35.10;;;;;;5073789;28;20206;-86
2022/08/15 12:50:48;;;;;;;1.80;1.70;;;37.90;33.30;;;;;;5084716;28;20194;-83
2022/08/15 12:53:15;;;;;;;1.97;1.87;;;35.40;35.20;;;;;;5081089;28;20202;-81
2022/08/15 12:55:44;;;;;;;2.20;1.97;;;34.10;37.00;;;;;;5080811;28;20941;-83
2022/08/15 12:58:12;;;;;;;1.97;1.83;;;32.30;38.10;;;;;;5076025;28;20640;-82
2022/08/15 13:00:41;;;;;;;1.80;1.50;;;31.80;40.20;;;;;;5071778;28;21313;-83
2022/08/15 13:03:15;;;;;;;1.43;1.33;;;30.60;42.10;;;;;;5069896;28;20724;-81
2022/08/15 13:05:43;;;;;;;1.57;1.47;;;29.60;43.70;;;;;;5071800;28;20660;-81
2022/08/15 13:08:10;;;;;;;1.50;1.40;;;29.00;44.90;;;;;;5071639;28;20737;-84
2022/08/15 13:10:37;;;;;;;1.40;1.30;;;28.80;46.00;;;;;;5084039;28;20621;-84
2022/08/15 13:13:04;;;;;;;1.93;1.53;;;28.90;45.80;;;;;;5082591;28;20622;-86
2022/08/15 13:15:31;;;;;;;1.80;1.70;;;29.00;46.60;;;;;;5069801;28;20648;-86
2022/08/15 13:18:00;;;;;;;1.60;1.50;;;29.20;45.60;;;;;;5075911;28;20634;-85